Time;durP1;ratioP1;P1;durP2;ratioP2;P2;SDS_P1;SDS_P2;PMS_P1;PMS_P2;Temp;Humidity;BMP_temperature;BMP_pressure;BME280_temperature;BME280_humidity;BME280_pressure;Samples;Min_cycle;Max_cycle;Signal;HPM_P1;HPM_P2
2023/04/27 00:01:19;;;;;;;10.63;5.45;;;8.40;99.90;;;;;;5072777;28;20174;-47
2023/04/27 00:03:46;;;;;;;11.52;6.53;;;;;;;;;;5072611;28;20626;-45
2023/04/27 00:06:11;;;;;;;12.30;5.05;;;8.20;99.90;;;;;;5072709;28;20707;-46
2023/04/27 00:08:37;;;;;;;9.30;4.82;;;8.20;99.90;;;;;;5072689;28;20197;-46
2023/04/27 00:11:02;;;;;;;9.23;5.30;;;8.20;99.90;;;;;;5072231;28;20229;-45
2023/04/27 00:13:28;;;;;;;9.90;5.78;;;8.20;99.90;;;;;;5072390;28;20529;-46
2023/04/27 00:15:54;;;;;;;7.75;5.53;;;8.20;99.90;;;;;;5072639;28;20675;-45
2023/04/27 00:18:19;;;;;;;12.25;5.82;;;8.20;99.90;;;;;;5092473;28;20161;-46
2023/04/27 00:20:45;;;;;;;9.40;5.38;;;;;;;;;;5092696;28;20172;-45
2023/04/27 00:23:11;;;;;;;9.32;5.13;;;8.10;99.90;;;;;;5092844;28;20173;-45
2023/04/27 00:25:37;;;;;;;9.57;6.10;;;8.20;99.90;;;;;;5092436;28;20575;-45
2023/04/27 00:28:02;;;;;;;12.27;5.60;;;8.10;99.90;;;;;;5092328;28;20688;-45
2023/04/27 00:30:28;;;;;;;7.22;5.95;;;;;;;;;;5092540;28;20193;-47
2023/04/27 00:32:54;;;;;;;8.27;5.25;;;8.00;99.90;;;;;;5092326;28;20281;-45
2023/04/27 00:35:20;;;;;;;8.60;5.90;;;8.10;99.90;;;;;;5092241;28;20537;-45
2023/04/27 00:37:45;;;;;;;9.23;5.53;;;8.10;99.90;;;;;;5092189;28;20593;-45
2023/04/27 00:40:11;;;;;;;9.10;5.47;;;8.10;99.90;;;;;;5092613;28;20166;-46
2023/04/27 00:42:37;;;;;;;5.63;4.78;;;8.00;99.90;;;;;;5091944;28;20166;-46
2023/04/27 00:45:04;;;;;;;8.32;5.93;;;8.10;99.90;;;;;;5092159;28;20165;-45
2023/04/27 00:47:29;;;;;;;8.68;5.63;;;8.10;99.90;;;;;;5078434;28;20235;-46
2023/04/27 00:49:55;;;;;;;8.48;4.95;;;8.00;99.90;;;;;;5071826;28;20582;-45
2023/04/27 00:52:21;;;;;;;7.80;5.53;;;8.00;99.90;;;;;;5071742;28;20208;-45
2023/04/27 00:54:49;;;;;;;8.73;5.97;;;8.00;99.90;;;;;;5071752;28;20162;-46
2023/04/27 00:57:15;;;;;;;7.97;5.68;;;8.00;99.90;;;;;;5071729;28;20245;-46
2023/04/27 00:59:41;;;;;;;8.82;5.35;;;7.90;99.90;;;;;;5072287;28;20204;-46
2023/04/27 01:02:07;;;;;;;7.30;5.53;;;7.80;99.90;;;;;;5071677;28;20165;-45
2023/04/27 01:04:32;;;;;;;8.70;5.72;;;7.90;99.90;;;;;;5071671;28;20253;-46
2023/04/27 01:06:58;;;;;;;10.20;5.88;;;7.80;99.90;;;;;;5071805;28;20649;-46
2023/04/27 01:09:24;;;;;;;14.18;6.20;;;7.80;99.90;;;;;;5071873;28;20162;-46
2023/04/27 01:11:49;;;;;;;8.48;5.82;;;7.80;99.90;;;;;;5071387;28;20700;-47
2023/04/27 01:14:16;;;;;;;8.35;5.72;;;7.80;99.90;;;;;;5071491;28;20581;-46
2023/04/27 01:16:41;;;;;;;10.65;5.97;;;7.80;99.90;;;;;;5072289;28;20201;-45
2023/04/27 01:19:08;;;;;;;9.63;5.15;;;7.80;99.90;;;;;;5071587;28;20535;-46
2023/04/27 01:21:33;;;;;;;11.82;5.68;;;7.70;99.90;;;;;;5071790;28;20230;-52
2023/04/27 01:23:59;;;;;;;10.02;5.82;;;7.70;99.90;;;;;;5071496;28;20253;-51
2023/04/27 01:26:24;;;;;;;13.07;6.28;;;7.70;99.90;;;;;;5072590;28;20173;-52
2023/04/27 01:28:50;;;;;;;8.98;6.20;;;7.70;99.90;;;;;;5071721;28;20166;-51
2023/04/27 01:31:15;;;;;;;14.55;5.90;;;7.60;99.90;;;;;;5071326;28;20209;-52
2023/04/27 01:33:41;;;;;;;9.50;5.93;;;7.60;99.90;;;;;;5071643;28;20174;-51
2023/04/27 01:36:08;;;;;;;12.50;6.28;;;7.50;99.90;;;;;;5071391;28;20173;-52
2023/04/27 01:38:34;;;;;;;10.05;6.35;;;7.50;99.90;;;;;;5071326;28;20166;-51
2023/04/27 01:41:02;;;;;;;8.55;5.68;;;7.50;99.90;;;;;;5071264;28;20688;-52
2023/04/27 01:43:30;;;;;;;10.68;5.85;;;7.50;99.90;;;;;;5071289;28;20174;-51
2023/04/27 01:45:56;;;;;;;10.85;6.57;;;7.40;99.90;;;;;;5073889;28;20166;-52
2023/04/27 01:48:21;;;;;;;8.82;6.53;;;7.40;99.90;;;;;;5091164;28;20641;-51
2023/04/27 01:50:47;;;;;;;12.30;5.68;;;7.40;99.90;;;;;;5091316;28;20207;-51
2023/04/27 01:53:13;;;;;;;9.05;5.93;;;7.30;99.90;;;;;;5093284;28;20177;-51
2023/04/27 01:55:38;;;;;;;12.38;5.68;;;7.30;99.90;;;;;;5095293;28;20181;-51
2023/04/27 01:58:04;;;;;;;8.95;5.80;;;7.20;99.90;;;;;;5095364;28;20307;-49
2023/04/27 02:00:29;;;;;;;7.45;5.25;;;7.10;99.90;;;;;;5095527;28;20173;-49
2023/04/27 02:02:57;;;;;;;7.32;5.60;;;7.00;99.90;;;;;;5095450;28;20248;-52
2023/04/27 02:05:23;;;;;;;9.15;5.47;;;6.90;99.90;;;;;;5095367;28;20546;-51
2023/04/27 02:07:49;;;;;;;9.90;6.47;;;6.90;99.90;;;;;;5095058;28;20172;-51
2023/04/27 02:10:15;;;;;;;11.18;5.75;;;6.90;99.90;;;;;;5094775;28;20235;-49
2023/04/27 02:12:40;;;;;;;10.43;6.65;;;6.90;99.90;;;;;;5095326;28;20174;-51
2023/04/27 02:15:07;;;;;;;11.85;6.22;;;6.90;99.90;;;;;;5094968;28;20527;-51
2023/04/27 02:17:37;;;;;;;11.77;6.43;;;6.90;99.90;;;;;;5075997;28;20183;-51
2023/04/27 02:20:05;;;;;;;11.02;5.93;;;6.90;99.90;;;;;;5074884;28;20166;-50
2023/04/27 02:22:31;;;;;;;11.13;5.75;;;6.90;99.90;;;;;;5074813;28;20562;-51
2023/04/27 02:24:56;;;;;;;8.95;5.63;;;6.90;99.90;;;;;;5074483;28;20170;-51
2023/04/27 02:27:22;;;;;;;8.82;5.75;;;6.90;99.90;;;;;;5074416;28;20173;-51
2023/04/27 02:29:47;;;;;;;12.68;6.38;;;6.90;99.90;;;;;;5074481;28;20634;-51
2023/04/27 02:32:13;;;;;;;12.77;6.38;;;6.90;99.90;;;;;;5074722;28;20628;-51
2023/04/27 02:34:38;;;;;;;12.05;6.07;;;6.80;99.90;;;;;;5074353;28;20205;-46
2023/04/27 02:37:04;;;;;;;10.95;6.05;;;;;;;;;;5074306;28;20658;-46
2023/04/27 02:39:30;;;;;;;9.35;6.22;;;6.80;99.90;;;;;;5074308;28;20618;-45
2023/04/27 02:41:55;;;;;;;10.98;6.40;;;6.70;99.90;;;;;;5074304;28;20645;-45
2023/04/27 02:44:21;;;;;;;10.82;5.72;;;6.70;99.90;;;;;;5074145;28;20197;-45
2023/04/27 02:46:46;;;;;;;12.57;6.22;;;6.70;99.90;;;;;;5086312;28;20169;-46
2023/04/27 02:49:12;;;;;;;11.02;6.35;;;6.60;99.90;;;;;;5094235;28;20165;-45
2023/04/27 02:51:37;;;;;;;13.05;6.78;;;6.60;99.90;;;;;;5094156;28;20197;-46
2023/04/27 02:54:03;;;;;;;10.55;5.85;;;6.60;99.90;;;;;;5094429;28;20529;-45
2023/04/27 02:56:28;;;;;;;10.65;6.00;;;6.60;99.90;;;;;;5094165;28;20169;-45
2023/04/27 02:58:55;;;;;;;9.65;5.88;;;6.50;99.90;;;;;;5094051;28;20166;-46
2023/04/27 03:01:20;;;;;;;10.00;6.45;;;6.50;99.90;;;;;;5094303;28;20210;-46
2023/04/27 03:03:46;;;;;;;11.63;5.85;;;6.30;99.90;;;;;;5093903;28;20166;-47
2023/04/27 03:06:12;;;;;;;11.20;6.55;;;6.40;99.90;;;;;;5094558;28;20259;-45
2023/04/27 03:08:38;;;;;;;15.80;7.00;;;6.40;99.90;;;;;;5093940;28;20166;-46
2023/04/27 03:11:03;;;;;;;8.25;5.90;;;6.40;99.90;;;;;;5093713;28;20560;-46
2023/04/27 03:13:29;;;;;;;12.55;5.88;;;6.50;99.90;;;;;;5093825;28;20169;-45
2023/04/27 03:15:54;;;;;;;11.20;6.40;;;6.30;99.90;;;;;;5086044;28;20260;-46
2023/04/27 03:18:20;;;;;;;8.00;5.65;;;6.30;99.90;;;;;;5073634;28;20220;-46
2023/04/27 03:20:46;;;;;;;10.25;6.07;;;6.40;99.90;;;;;;5073590;28;20166;-45
2023/04/27 03:23:11;;;;;;;7.72;5.40;;;6.30;99.90;;;;;;5073764;28;20653;-45
2023/04/27 03:25:37;;;;;;;8.80;5.50;;;6.30;99.90;;;;;;5073563;28;20177;-45
2023/04/27 03:28:03;;;;;;;10.02;6.47;;;6.30;99.90;;;;;;5073316;28;20177;-45
2023/04/27 03:30:29;;;;;;;11.60;5.63;;;;;;;;;;5073389;28;20174;-49
2023/04/27 03:32:55;;;;;;;21.30;6.68;;;;;;;;;;5073191;28;20173;-51
2023/04/27 03:35:21;;;;;;;11.93;6.47;;;;;;;;;;5073232;28;20215;-51
2023/04/27 03:37:46;;;;;;;9.43;6.43;;;6.10;99.90;;;;;;5073369;28;20173;-51
2023/04/27 03:40:13;;;;;;;11.45;5.95;;;6.10;99.90;;;;;;5073423;28;20629;-51
2023/04/27 03:42:39;;;;;;;9.52;5.97;;;6.00;99.90;;;;;;5073375;28;20532;-51
2023/04/27 03:45:05;;;;;;;9.45;5.82;;;6.00;99.90;;;;;;5072816;28;20170;-50
2023/04/27 03:47:31;;;;;;;12.63;6.63;;;6.00;99.90;;;;;;5093104;28;20589;-51
2023/04/27 03:49:57;;;;;;;8.23;5.75;;;5.90;99.90;;;;;;5093154;28;20170;-51
2023/04/27 03:52:22;;;;;;;12.20;6.25;;;6.00;99.90;;;;;;5092508;28;20209;-52
2023/04/27 03:54:48;;;;;;;11.02;6.00;;;6.00;99.90;;;;;;5093066;28;20173;-51
2023/04/27 03:57:13;;;;;;;13.40;6.40;;;5.90;99.90;;;;;;5093025;28;20165;-50
2023/04/27 03:59:39;;;;;;;10.95;6.30;;;5.90;99.90;;;;;;5093358;28;20166;-51
2023/04/27 04:02:05;;;;;;;9.43;6.57;;;6.00;99.90;;;;;;5092845;28;20172;-49
2023/04/27 04:04:30;;;;;;;9.88;7.25;;;6.00;99.90;;;;;;5092780;28;20162;-50
2023/04/27 04:06:56;;;;;;;11.85;6.50;;;5.90;99.90;;;;;;5092663;28;20169;-45
2023/04/27 04:09:21;;;;;;;10.88;6.25;;;5.90;99.90;;;;;;5092727;28;20166;-51
2023/04/27 04:11:47;;;;;;;12.00;5.82;;;5.90;99.90;;;;;;5092385;28;20228;-51
2023/04/27 04:14:13;;;;;;;12.95;6.10;;;5.90;99.90;;;;;;5093117;28;20162;-51
2023/04/27 04:16:38;;;;;;;11.73;8.82;;;5.90;99.90;;;;;;5075767;28;20170;-48
2023/04/27 04:19:04;;;;;;;10.07;5.88;;;5.80;99.90;;;;;;5072317;28;20216;-52
2023/04/27 04:21:30;;;;;;;9.80;5.40;;;5.90;99.90;;;;;;5072489;28;20223;-51
2023/04/27 04:23:56;;;;;;;11.15;5.20;;;5.80;99.90;;;;;;5072089;28;20208;-50
2023/04/27 04:26:22;;;;;;;9.85;5.75;;;5.70;99.90;;;;;;5072130;28;20194;-47
2023/04/27 04:28:48;;;;;;;8.40;6.03;;;5.60;99.90;;;;;;5072391;28;20174;-45
2023/04/27 04:31:16;;;;;;;10.85;5.95;;;;;;;;;;5072297;28;20292;-45
2023/04/27 04:33:41;;;;;;;7.90;5.63;;;5.70;99.90;;;;;;5072720;28;20162;-46
2023/04/27 04:36:07;;;;;;;13.02;7.22;;;5.70;99.90;;;;;;5072207;28;20642;-47
2023/04/27 04:38:33;;;;;;;16.92;7.35;;;5.70;99.90;;;;;;5072070;28;20721;-46
2023/04/27 04:40:58;;;;;;;14.68;6.65;;;5.80;99.90;;;;;;5071954;28;20622;-47
2023/04/27 04:43:24;;;;;;;8.15;5.75;;;5.80;99.90;;;;;;5071899;28;20192;-46
2023/04/27 04:45:50;;;;;;;14.98;6.53;;;5.90;99.90;;;;;;5072172;28;20235;-50
2023/04/27 04:48:16;;;;;;;9.00;6.07;;;5.90;99.90;;;;;;5071651;28;20249;-50
2023/04/27 04:50:42;;;;;;;11.70;6.32;;;5.90;99.90;;;;;;5072247;28;20202;-46
2023/04/27 04:53:08;;;;;;;13.88;6.25;;;;;;;;;;5071759;28;20172;-50
2023/04/27 04:55:34;;;;;;;16.77;6.28;;;6.10;99.90;;;;;;5071629;28;20170;-50
2023/04/27 04:57:59;;;;;;;10.77;6.90;;;6.10;99.90;;;;;;5070358;28;20174;-51
2023/04/27 05:00:25;;;;;;;11.43;6.55;;;6.00;99.90;;;;;;5071573;28;20173;-51
2023/04/27 05:02:51;;;;;;;9.10;6.70;;;6.10;99.90;;;;;;5071577;28;20170;-50
2023/04/27 05:05:17;;;;;;;12.23;6.55;;;6.10;99.90;;;;;;5071575;28;20201;-44
2023/04/27 05:07:42;;;;;;;9.98;6.15;;;6.20;99.90;;;;;;5071852;28;20174;-49
2023/04/27 05:10:08;;;;;;;10.77;6.90;;;6.20;99.90;;;;;;5071452;28;20220;-50
2023/04/27 05:12:34;;;;;;;11.00;7.03;;;6.40;99.90;;;;;;5071674;28;20218;-52
2023/04/27 05:14:59;;;;;;;10.18;6.78;;;6.50;99.90;;;;;;5075497;28;20534;-50
2023/04/27 05:17:25;;;;;;;14.73;6.03;;;6.50;99.90;;;;;;5091897;28;20180;-52
2023/04/27 05:19:51;;;;;;;13.02;6.78;;;6.50;99.90;;;;;;5091985;28;20273;-49
2023/04/27 05:22:16;;;;;;;12.15;6.78;;;6.60;99.90;;;;;;5091630;28;20680;-48
2023/04/27 05:24:42;;;;;;;10.93;6.88;;;6.70;99.90;;;;;;5092003;28;20625;-48
2023/04/27 05:27:07;;;;;;;10.23;6.35;;;6.80;99.90;;;;;;5092727;28;20157;-46
2023/04/27 05:29:33;;;;;;;11.02;6.18;;;6.80;99.90;;;;;;5083066;28;20210;-49
2023/04/27 05:31:58;;;;;;;9.95;6.50;;;6.90;99.90;;;;;;5075378;28;20216;-51
2023/04/27 05:34:24;;;;;;;11.68;6.97;;;6.90;99.90;;;;;;5075424;28;20162;-51
2023/04/27 05:36:50;;;;;;;12.48;7.72;;;6.90;99.90;;;;;;5075591;28;20170;-51
2023/04/27 05:39:16;;;;;;;11.02;6.70;;;7.00;99.90;;;;;;5073931;28;20180;-50
2023/04/27 05:41:41;;;;;;;14.05;6.82;;;6.90;99.90;;;;;;5075594;28;20162;-51
2023/04/27 05:44:07;;;;;;;15.07;6.72;;;7.00;99.90;;;;;;5075497;28;20170;-52
2023/04/27 05:46:32;;;;;;;12.18;7.03;;;7.00;99.90;;;;;;5091907;28;20885;-52
2023/04/27 05:48:58;;;;;;;15.80;7.35;;;7.10;99.90;;;;;;5095382;28;20176;-52
2023/04/27 05:51:24;;;;;;;15.85;7.00;;;7.20;99.90;;;;;;5095239;28;20266;-48
2023/04/27 05:53:49;;;;;;;13.32;6.60;;;7.30;99.90;;;;;;5095213;28;20177;-51
2023/04/27 05:56:15;;;;;;;16.17;9.93;;;7.20;99.90;;;;;;5095451;28;20654;-51
2023/04/27 05:58:41;;;;;;;12.10;7.60;;;7.30;99.90;;;;;;5095489;28;20172;-51
2023/04/27 06:01:06;;;;;;;12.30;6.78;;;7.30;99.90;;;;;;5095108;28;20166;-46
2023/04/27 06:03:32;;;;;;;10.85;6.80;;;;;;;;;;5095028;28;20255;-50
2023/04/27 06:05:59;;;;;;;13.23;7.38;;;7.40;99.90;;;;;;5095036;28;20240;-51
2023/04/27 06:08:26;;;;;;;14.52;7.45;;;7.40;99.90;;;;;;5094755;28;20169;-51
2023/04/27 06:10:52;;;;;;;11.75;7.35;;;7.50;99.90;;;;;;5094689;28;20853;-50
2023/04/27 06:13:18;;;;;;;10.30;6.88;;;;;;;;;;5090430;28;20179;-50
2023/04/27 06:15:45;;;;;;;12.15;6.97;;;7.70;99.90;;;;;;5095140;28;20165;-50
2023/04/27 06:18:11;;;;;;;11.18;6.80;;;7.70;99.90;;;;;;5095475;28;20169;-51
2023/04/27 06:20:36;;;;;;;14.13;6.93;;;7.70;99.90;;;;;;5094792;28;20207;-51
2023/04/27 06:23:02;;;;;;;13.65;7.60;;;7.80;99.90;;;;;;5075192;28;20174;-47
2023/04/27 06:25:28;;;;;;;13.10;7.13;;;7.90;99.90;;;;;;5074356;28;20166;-51
2023/04/27 06:27:56;;;;;;;17.08;7.68;;;8.10;99.90;;;;;;5076544;28;20206;-51
2023/04/27 06:30:23;;;;;;;12.55;7.63;;;8.10;99.90;;;;;;5074286;28;20248;-50
2023/04/27 06:32:49;;;;;;;22.15;7.72;;;8.10;99.90;;;;;;5075958;28;20169;-53
2023/04/27 06:35:16;;;;;;;17.98;7.72;;;8.20;99.90;;;;;;5094743;28;20166;-52
2023/04/27 06:37:41;;;;;;;14.77;7.13;;;8.30;99.90;;;;;;5079816;28;20170;-46
2023/04/27 06:40:08;;;;;;;11.73;7.32;;;8.40;99.90;;;;;;5073729;28;20546;-45
2023/04/27 06:42:34;;;;;;;13.55;7.43;;;8.50;99.90;;;;;;5076465;28;20185;-45
2023/04/27 06:44:59;;;;;;;13.23;7.35;;;8.60;99.90;;;;;;5079376;28;20170;-45
2023/04/27 06:47:25;;;;;;;13.57;7.93;;;;;;;;;;5081235;28;20260;-44
2023/04/27 06:49:51;;;;;;;13.57;8.05;;;8.90;99.90;;;;;;5075030;28;20162;-44
2023/04/27 06:52:16;;;;;;;21.48;8.80;;;8.80;99.90;;;;;;5073811;28;20201;-45
2023/04/27 06:54:42;;;;;;;14.43;7.80;;;8.90;99.90;;;;;;5074338;28;20599;-45
2023/04/27 06:57:08;;;;;;;12.32;7.80;;;8.90;99.90;;;;;;5074198;28;20170;-47
2023/04/27 06:59:34;;;;;;;12.43;7.60;;;;;;;;;;5073863;28;20198;-45
2023/04/27 07:02:00;;;;;;;11.98;7.30;;;9.10;99.90;;;;;;5073786;28;20167;-47
2023/04/27 07:04:26;;;;;;;10.98;7.43;;;9.30;99.90;;;;;;5088905;28;20172;-45
2023/04/27 07:06:51;;;;;;;9.68;6.80;;;9.40;99.90;;;;;;5093694;28;20223;-45
2023/04/27 07:09:17;;;;;;;14.02;8.27;;;9.40;99.90;;;;;;5094042;28;20161;-45
2023/04/27 07:11:43;;;;;;;14.77;8.32;;;;;;;;;;5093549;28;20213;-45
2023/04/27 07:14:09;;;;;;;15.30;8.48;;;;;;;;;;5094185;28;20165;-47
2023/04/27 07:16:35;;;;;;;11.23;7.70;;;9.70;99.90;;;;;;5093996;28;20180;-45
2023/04/27 07:19:00;;;;;;;18.15;7.63;;;9.70;99.90;;;;;;5083472;28;20173;-45
2023/04/27 07:21:27;;;;;;;12.77;7.22;;;9.70;99.90;;;;;;5086317;28;20170;-45
2023/04/27 07:23:53;;;;;;;12.30;7.03;;;9.70;99.90;;;;;;5074400;28;20595;-45
2023/04/27 07:26:18;;;;;;;11.18;7.70;;;9.90;99.90;;;;;;5087734;28;20306;-45
2023/04/27 07:28:46;;;;;;;12.15;7.82;;;10.00;99.90;;;;;;5093561;28;20169;-45
2023/04/27 07:31:11;;;;;;;13.48;7.63;;;10.10;99.90;;;;;;5080094;28;20219;-45
2023/04/27 07:33:37;;;;;;;13.23;7.07;;;10.20;99.90;;;;;;5073598;28;20697;-45
2023/04/27 07:36:04;;;;;;;11.60;7.88;;;10.30;99.90;;;;;;5073063;28;20170;-45
2023/04/27 07:38:30;;;;;;;16.17;7.63;;;10.20;99.90;;;;;;5073039;28;20177;-45
2023/04/27 07:40:57;;;;;;;14.00;7.95;;;10.30;99.90;;;;;;5073058;28;20219;-45
2023/04/27 07:43:24;;;;;;;11.40;7.85;;;10.30;99.90;;;;;;5073167;28;20579;-44
2023/04/27 07:45:50;;;;;;;14.05;8.05;;;10.30;99.90;;;;;;5073192;28;20582;-45
2023/04/27 07:48:16;;;;;;;12.55;7.97;;;10.40;99.90;;;;;;5073012;28;20192;-45
2023/04/27 07:50:41;;;;;;;11.98;7.07;;;10.30;99.90;;;;;;5072129;28;20250;-47
2023/04/27 07:53:07;;;;;;;13.45;7.90;;;10.60;99.90;;;;;;5072821;28;20189;-45
2023/04/27 07:55:32;;;;;;;13.95;7.90;;;10.50;99.90;;;;;;5072811;28;20177;-45
2023/04/27 07:57:58;;;;;;;16.40;8.68;;;10.60;99.90;;;;;;5072952;28;20589;-45
2023/04/27 08:00:25;;;;;;;13.82;9.48;;;10.60;99.90;;;;;;5073070;28;20677;-45
2023/04/27 08:02:54;;;;;;;15.13;8.00;;;10.80;99.90;;;;;;5072848;28;20201;-48
2023/04/27 08:05:20;;;;;;;13.77;9.20;;;10.90;99.90;;;;;;5072756;28;20158;-47
2023/04/27 08:07:45;;;;;;;15.75;8.68;;;11.00;99.90;;;;;;5072820;28;20173;-45
2023/04/27 08:10:11;;;;;;;14.18;9.30;;;11.10;99.90;;;;;;5072867;28;20210;-45
2023/04/27 08:12:37;;;;;;;11.93;8.15;;;11.20;99.90;;;;;;5072358;28;20557;-45
2023/04/27 08:15:04;;;;;;;13.88;8.50;;;11.40;99.90;;;;;;5072466;28;20169;-46
2023/04/27 08:17:30;;;;;;;13.50;9.02;;;11.30;99.90;;;;;;5072449;28;20207;-46
2023/04/27 08:19:55;;;;;;;15.80;9.30;;;11.30;99.90;;;;;;5072541;28;20560;-46
2023/04/27 08:22:21;;;;;;;19.25;9.45;;;11.70;99.90;;;;;;5072193;28;20174;-45
2023/04/27 08:24:47;;;;;;;15.77;9.43;;;11.80;99.90;;;;;;5072256;28;20216;-45
2023/04/27 08:27:14;;;;;;;16.75;9.77;;;;;;;;;;5072249;28;20622;-45
2023/04/27 08:29:45;;;;;;;13.60;9.40;;;11.90;99.90;;;;;;5076496;28;20187;-45
2023/04/27 08:32:11;;;;;;;20.02;10.25;;;12.00;99.90;;;;;;5092608;28;20697;-45
2023/04/27 08:34:37;;;;;;;15.40;10.32;;;12.00;99.90;;;;;;5092330;28;20176;-45
2023/04/27 08:37:03;;;;;;;15.65;9.50;;;12.10;99.90;;;;;;5092582;28;20169;-45
2023/04/27 08:39:28;;;;;;;16.77;10.77;;;12.30;99.90;;;;;;5092479;28;20246;-46
2023/04/27 08:41:54;;;;;;;17.02;10.43;;;12.40;99.90;;;;;;5092232;28;20567;-52
2023/04/27 08:44:20;;;;;;;14.05;9.80;;;12.20;98.70;;;;;;5092335;28;20166;-52
2023/04/27 08:46:45;;;;;;;14.73;9.80;;;12.40;99.80;;;;;;5092182;28;20184;-52
2023/04/27 08:49:11;;;;;;;22.65;9.98;;;12.40;99.90;;;;;;5092523;28;20189;-45
2023/04/27 08:51:36;;;;;;;16.95;9.93;;;12.50;99.90;;;;;;5092137;28;20679;-43
2023/04/27 08:54:02;;;;;;;17.77;10.90;;;12.50;99.90;;;;;;5091899;28;20162;-52
2023/04/27 08:56:28;;;;;;;17.90;10.38;;;12.90;99.90;;;;;;5091788;28;20167;-51
2023/04/27 08:58:55;;;;;;;15.80;10.05;;;12.90;98.60;;;;;;5091856;28;20173;-46
2023/04/27 09:01:22;;;;;;;15.35;9.30;;;13.20;98.30;;;;;;5091160;28;20197;-52
2023/04/27 09:03:48;;;;;;;13.25;8.93;;;13.20;96.80;;;;;;5092133;28;20176;-51
2023/04/27 09:06:15;;;;;;;12.07;8.65;;;13.20;95.90;;;;;;5092148;28;20169;-47
2023/04/27 09:08:48;;;;;;;14.60;9.25;;;13.20;96.30;;;;;;5092550;28;20199;-52
2023/04/27 09:11:16;;;;;;;12.93;8.70;;;13.20;94.50;;;;;;5091621;28;20558;-45
2023/04/27 09:13:44;;;;;;;13.05;8.57;;;13.10;93.50;;;;;;5092119;28;20221;-51
2023/04/27 09:16:13;;;;;;;14.52;9.00;;;13.40;94.30;;;;;;5092105;28;20715;-48
2023/04/27 09:18:41;;;;;;;11.48;7.88;;;13.20;93.30;;;;;;5092188;28;20172;-43
2023/04/27 09:21:07;;;;;;;11.32;7.55;;;13.30;92.60;;;;;;5092177;28;20176;-45
2023/04/27 09:23:37;;;;;;;11.77;7.75;;;13.50;93.00;;;;;;5091777;28;20181;-45
2023/04/27 09:26:08;;;;;;;13.57;8.05;;;13.50;93.30;;;;;;5091912;28;20543;-47
2023/04/27 09:28:37;;;;;;;11.38;7.88;;;13.90;90.90;;;;;;5091682;28;20613;-52
2023/04/27 09:31:03;;;;;;;12.93;7.72;;;13.90;90.50;;;;;;5073129;28;20206;-53
2023/04/27 09:33:34;;;;;;;12.38;7.50;;;14.00;91.00;;;;;;5071325;28;20190;-53
2023/04/27 09:36:05;;;;;;;13.38;6.95;;;13.80;87.80;;;;;;5071659;28;20173;-52
2023/04/27 09:38:31;;;;;;;11.68;7.22;;;13.70;87.60;;;;;;5071642;28;20170;-52
2023/04/27 09:40:58;;;;;;;9.38;6.43;;;13.80;85.40;;;;;;5071349;28;20570;-52
2023/04/27 09:43:26;;;;;;;8.52;6.07;;;;;;;;;;5071551;28;20178;-48
2023/04/27 09:45:56;;;;;;;7.90;6.10;;;14.10;84.00;;;;;;5071496;28;20182;-52
2023/04/27 09:48:22;;;;;;;7.88;5.93;;;14.20;83.60;;;;;;5071278;28;20280;-53
2023/04/27 09:50:49;;;;;;;14.30;6.68;;;14.40;85.30;;;;;;5071241;28;20174;-52
2023/04/27 09:53:18;;;;;;;13.82;6.38;;;14.10;85.50;;;;;;5071350;28;20178;-52
2023/04/27 09:55:49;;;;;;;9.15;7.10;;;14.20;84.10;;;;;;5071187;28;20223;-52
2023/04/27 09:58:54;;;;;;;7.97;6.32;;;14.20;84.20;;;;;;5071141;28;20253;-52
2023/04/27 10:01:32;;;;;;;12.35;7.13;;;14.30;82.90;;;;;;5071012;28;20180;-50
2023/04/27 10:04:17;;;;;;;11.07;6.80;;;14.30;83.10;;;;;;5071116;28;20170;-51
2023/04/27 10:07:03;;;;;;;13.55;6.70;;;14.60;81.00;;;;;;5071265;28;20219;-52
2023/04/27 10:09:38;;;;;;;9.40;7.47;;;14.70;81.70;;;;;;5071284;28;20166;-51
2023/04/27 10:12:13;;;;;;;14.30;8.50;;;14.80;83.70;;;;;;5071259;28;20300;-52
2023/04/27 10:14:47;;;;;;;13.00;8.10;;;14.80;85.00;;;;;;5073232;28;20172;-52
2023/04/27 10:17:13;;;;;;;10.98;7.10;;;15.00;84.10;;;;;;5074907;28;20174;-52
2023/04/27 10:19:38;;;;;;;11.20;8.10;;;15.00;83.00;;;;;;5075040;28;20194;-52
2023/04/27 10:22:07;;;;;;;10.02;7.53;;;;;;;;;;5074521;28;20170;-51
2023/04/27 10:24:43;;;;;;;11.77;7.53;;;15.00;82.20;;;;;;5074763;28;20174;-52
2023/04/27 10:27:18;;;;;;;13.80;8.35;;;15.10;81.00;;;;;;5075078;28;20174;-49
2023/04/27 10:29:46;;;;;;;9.55;7.50;;;15.50;83.50;;;;;;5083868;28;20164;-52
2023/04/27 10:32:24;;;;;;;10.20;7.60;;;15.30;81.40;;;;;;5094549;28;20703;-50
2023/04/27 10:34:51;;;;;;;12.73;7.63;;;15.50;81.40;;;;;;5094637;28;20621;-50
2023/04/27 10:37:19;;;;;;;11.07;7.43;;;15.60;81.70;;;;;;5094795;28;20177;-52
2023/04/27 10:39:45;;;;;;;10.23;7.50;;;15.40;79.90;;;;;;5094724;28;20174;-52
2023/04/27 10:42:10;;;;;;;11.18;8.50;;;15.30;78.60;;;;;;5094903;28;20165;-48
2023/04/27 10:44:37;;;;;;;13.68;9.20;;;15.50;80.00;;;;;;5094423;28;20162;-49
2023/04/27 10:47:14;;;;;;;17.42;8.52;;;15.50;80.70;;;;;;5094279;28;20629;-45
2023/04/27 10:49:40;;;;;;;12.65;8.75;;;15.60;81.50;;;;;;5094792;28;20625;-46
2023/04/27 10:52:06;;;;;;;12.05;7.82;;;15.80;80.10;;;;;;5094250;28;20201;-46
2023/04/27 10:54:32;;;;;;;14.43;9.43;;;15.70;77.90;;;;;;5094272;28;20154;-45
2023/04/27 10:57:08;;;;;;;16.15;8.73;;;16.00;79.20;;;;;;5094194;28;20264;-43
2023/04/27 10:59:34;;;;;;;10.40;8.27;;;16.10;79.80;;;;;;5086033;28;20196;-45
2023/04/27 11:02:00;;;;;;;14.63;8.80;;;16.00;81.10;;;;;;5073771;28;20650;-46
2023/04/27 11:04:39;;;;;;;18.10;9.27;;;16.10;80.80;;;;;;5073878;28;20204;-45
2023/04/27 11:07:07;;;;;;;11.52;8.93;;;16.00;79.20;;;;;;5074046;28;20170;-45
2023/04/27 11:09:34;;;;;;;12.52;8.82;;;16.00;79.50;;;;;;5073750;28;20154;-45
2023/04/27 11:12:00;;;;;;;10.27;8.52;;;16.10;80.60;;;;;;5073431;28;20252;-45
2023/04/27 11:14:26;;;;;;;13.30;9.23;;;15.90;79.60;;;;;;5073879;28;20212;-45
2023/04/27 11:16:51;;;;;;;15.55;9.45;;;16.00;78.90;;;;;;5073572;28;20178;-46
2023/04/27 11:19:17;;;;;;;14.90;9.15;;;16.00;80.20;;;;;;5073670;28;20166;-45
2023/04/27 11:21:43;;;;;;;11.93;8.52;;;16.10;80.60;;;;;;5073830;28;20205;-45
2023/04/27 11:24:09;;;;;;;12.63;8.43;;;16.20;79.60;;;;;;5072508;28;20638;-44
2023/04/27 11:26:34;;;;;;;14.13;8.70;;;16.00;78.30;;;;;;5073453;28;20177;-45
2023/04/27 11:29:08;;;;;;;12.00;9.27;;;16.20;78.50;;;;;;5073532;28;20174;-47
2023/04/27 11:31:52;;;;;;;13.52;8.43;;;16.10;78.50;;;;;;5073534;28;20245;-45
2023/04/27 11:34:20;;;;;;;12.07;9.05;;;16.30;77.90;;;;;;5073176;28;20655;-46
2023/04/27 11:37:00;;;;;;;13.38;9.50;;;16.20;78.70;;;;;;5073519;28;20195;-45
2023/04/27 11:39:27;;;;;;;15.13;9.07;;;16.40;78.60;;;;;;5073074;28;20166;-45
2023/04/27 11:41:53;;;;;;;15.85;8.50;;;16.50;80.00;;;;;;5073086;28;20664;-45
2023/04/27 11:44:25;;;;;;;13.57;8.65;;;16.60;78.40;;;;;;5073170;28;20170;-45
2023/04/27 11:46:52;;;;;;;13.32;9.35;;;16.20;76.40;;;;;;5073284;28;20166;-51
2023/04/27 11:49:17;;;;;;;12.05;8.98;;;16.40;79.00;;;;;;5073254;28;20202;-45
2023/04/27 11:51:45;;;;;;;17.98;9.02;;;16.20;77.50;;;;;;5072890;28;20657;-45
2023/04/27 11:54:11;;;;;;;14.10;9.80;;;16.20;79.60;;;;;;5073536;28;20231;-47
2023/04/27 11:56:39;;;;;;;15.82;8.73;;;16.70;80.00;;;;;;5073210;28;20163;-46
2023/04/27 11:59:05;;;;;;;12.80;8.43;;;16.70;78.60;;;;;;5080453;28;20222;-51
2023/04/27 12:01:32;;;;;;;12.35;8.18;;;16.70;79.20;;;;;;5093301;28;20701;-45
2023/04/27 12:04:00;;;;;;;13.18;8.60;;;16.70;77.60;;;;;;5093180;28;20200;-50
2023/04/27 12:06:27;;;;;;;18.27;8.25;;;16.70;80.40;;;;;;5093134;28;20170;-51
2023/04/27 12:08:54;;;;;;;17.33;9.48;;;16.30;77.10;;;;;;5092902;28;20248;-51
2023/04/27 12:11:20;;;;;;;11.60;8.43;;;16.20;77.40;;;;;;5092602;28;20312;-45
2023/04/27 12:13:47;;;;;;;11.98;9.20;;;16.20;75.80;;;;;;5090907;28;20200;-45
2023/04/27 12:16:12;;;;;;;16.83;9.00;;;16.50;76.70;;;;;;5092877;28;20181;-45
2023/04/27 12:18:38;;;;;;;12.38;8.00;;;16.10;76.70;;;;;;5093275;28;20165;-47
2023/04/27 12:21:06;;;;;;;11.65;9.00;;;16.50;79.00;;;;;;5092418;28;20521;-47
2023/04/27 12:23:32;;;;;;;12.63;8.57;;;16.60;77.00;;;;;;5092297;28;20173;-49
2023/04/27 12:25:58;;;;;;;13.23;9.07;;;16.30;76.10;;;;;;5092469;28;20240;-45
2023/04/27 12:28:23;;;;;;;15.15;9.27;;;16.60;75.70;;;;;;5090518;28;20215;-45
2023/04/27 12:30:49;;;;;;;14.80;8.98;;;16.60;75.70;;;;;;5071964;28;20173;-46
2023/04/27 12:33:15;;;;;;;13.18;8.77;;;17.00;76.80;;;;;;5072154;28;20170;-47
2023/04/27 12:35:41;;;;;;;9.90;8.30;;;;;;;;;;5072371;28;20615;-45
2023/04/27 12:38:07;;;;;;;10.82;8.70;;;16.60;75.20;;;;;;5071829;28;20178;-48
2023/04/27 12:40:32;;;;;;;24.20;17.02;;;16.80;75.70;;;;;;5071918;28;20215;-46
2023/04/27 12:42:59;;;;;;;12.30;7.32;;;16.30;76.00;;;;;;5071885;28;20169;-52
2023/04/27 12:45:24;;;;;;;16.08;8.73;;;16.30;76.10;;;;;;5072161;28;20185;-51
2023/04/27 12:47:50;;;;;;;11.80;7.93;;;16.30;75.80;;;;;;5071923;28;20166;-53